createdAt,value
2019-02-26T00:02:02.042Z,9.02
2019-02-26T00:04:34.446Z,8.98
2019-02-26T00:07:07.387Z,9.07
2019-02-26T00:09:39.615Z,9.05
2019-02-26T00:12:11.246Z,9.09
2019-02-26T00:14:43.052Z,9.15
2019-02-26T00:17:17.553Z,9.18
2019-02-26T00:19:49.337Z,9.30
2019-02-26T00:22:21.461Z,9.33
2019-02-26T00:24:53.080Z,9.48
2019-02-26T00:27:26.243Z,9.53
2019-02-26T00:29:58.068Z,9.54
2019-02-26T00:32:30.363Z,9.53
2019-02-26T00:35:06.945Z,9.48
2019-02-26T00:37:38.768Z,9.54
2019-02-26T00:40:14.616Z,9.53
2019-02-26T00:42:50.256Z,9.56
2019-02-26T00:45:24.739Z,9.60
2019-02-26T00:47:53.519Z,9.63
2019-02-26T00:50:25.191Z,9.48
2019-02-26T00:52:58.852Z,9.50
2019-02-26T00:55:32.213Z,9.51
2019-02-26T00:58:05.830Z,9.51
2019-02-26T01:00:37.503Z,9.60
2019-02-26T01:03:11.057Z,9.65
2019-02-26T01:05:43.161Z,9.60
2019-02-26T01:08:17.481Z,9.62
2019-02-26T01:10:49.186Z,9.59
2019-02-26T01:13:22.407Z,9.59
2019-02-26T01:15:54.321Z,9.61
2019-02-26T01:18:26.840Z,9.55
2019-02-26T01:21:00.259Z,9.64
2019-02-26T01:23:32.410Z,9.32
2019-02-26T01:26:04.008Z,9.37
2019-02-26T01:28:35.688Z,9.40
2019-02-26T01:31:07.427Z,9.31
2019-02-26T01:33:39.169Z,9.19
2019-02-26T01:36:10.760Z,9.15
2019-02-26T01:38:44.390Z,9.15
2019-02-26T01:41:17.859Z,8.94
2019-02-26T01:43:49.272Z,9.02
2019-02-26T01:46:20.805Z,8.84
2019-02-26T01:48:53.069Z,8.85
2019-02-26T01:51:26.097Z,8.76
2019-02-26T01:53:58.967Z,8.67
2019-02-26T01:56:30.631Z,8.66
2019-02-26T01:59:02.844Z,8.65
2019-02-26T02:01:34.507Z,8.64
2019-02-26T02:04:08.208Z,8.66
2019-02-26T02:06:41.236Z,8.55
2019-02-26T02:09:13.996Z,8.60
2019-02-26T02:11:45.845Z,8.57
2019-02-26T02:14:17.618Z,8.46
2019-02-26T02:16:49.771Z,8.40
2019-02-26T02:19:23.395Z,8.33
2019-02-26T02:21:58.283Z,8.33
2019-02-26T02:24:29.908Z,8.28
2019-02-26T02:27:01.522Z,8.17
2019-02-26T02:29:33.603Z,8.19
2019-02-26T02:32:07.731Z,8.19
2019-02-26T02:34:40.888Z,8.10
2019-02-26T02:37:14.848Z,8.05
2019-02-26T02:39:46.461Z,8.05
2019-02-26T02:42:19.105Z,8.10
2019-02-26T02:44:52.792Z,8.07
2019-02-26T02:47:25.318Z,8.06
2019-02-26T02:49:58.090Z,8.12
2019-02-26T02:52:30.457Z,8.13
2019-02-26T02:55:04.560Z,8.10
2019-02-26T02:57:36.083Z,8.17
2019-02-26T03:00:12.007Z,8.22
2019-02-26T03:02:46.792Z,8.17
2019-02-26T03:05:17.497Z,8.16
2019-02-26T03:07:51.648Z,8.15
2019-02-26T03:10:26.087Z,8.15
2019-02-26T03:12:57.805Z,8.13
2019-02-26T03:15:30.023Z,8.09
2019-02-26T03:18:04.157Z,8.06
2019-02-26T03:20:40.157Z,8.08
2019-02-26T03:23:15.166Z,8.04
2019-02-26T03:25:44.519Z,8.04
2019-02-26T03:28:39.988Z,8.05
2019-02-26T03:31:12.174Z,8.06
2019-02-26T03:33:44.257Z,8.02
2019-02-26T03:36:16.720Z,8.04
2019-02-26T03:38:51.183Z,8.05
2019-02-26T03:41:26.143Z,7.96
2019-02-26T03:44:00.316Z,7.96
2019-02-26T03:46:30.575Z,7.95
2019-02-26T03:49:02.773Z,7.95
2019-02-26T03:51:39.120Z,7.97
2019-02-26T03:54:08.599Z,7.96
2019-02-26T03:56:40.101Z,8.04
2019-02-26T03:59:11.864Z,8.03
2019-02-26T04:01:43.583Z,8.02
2019-02-26T04:04:15.171Z,8.04
2019-02-26T04:06:47.325Z,8.01
2019-02-26T04:09:19.627Z,8.04
2019-02-26T04:11:53.412Z,7.98
2019-02-26T04:14:26.361Z,7.97
2019-02-26T04:17:01.488Z,7.91
2019-02-26T04:19:32.151Z,7.85
2019-02-26T04:22:31.096Z,7.86
2019-02-26T04:25:16.702Z,7.90
2019-02-26T04:27:57.002Z,7.93
2019-02-26T04:30:59.742Z,7.97
2019-02-26T04:33:38.593Z,7.90
2019-02-26T04:36:29.466Z,7.88
2019-02-26T04:39:42.274Z,7.87
2019-02-26T04:42:43.681Z,8.01
2019-02-26T04:46:07.895Z,7.90
2019-02-26T04:48:51.694Z,7.86
2019-02-26T04:51:23.247Z,7.90
2019-02-26T04:53:56.132Z,7.92
2019-02-26T04:56:31.262Z,7.95
2019-02-26T04:59:03.584Z,7.91
2019-02-26T05:01:34.780Z,7.90
2019-02-26T05:04:06.452Z,7.95
2019-02-26T05:06:38.004Z,7.89
2019-02-26T05:09:10.620Z,7.93
2019-02-26T05:11:42.401Z,7.90
2019-02-26T05:14:15.405Z,7.93
2019-02-26T05:16:47.258Z,7.96
2019-02-26T05:19:21.510Z,8.00
2019-02-26T05:21:53.605Z,8.06
2019-02-26T05:24:26.277Z,8.08
2019-02-26T05:26:58.014Z,8.05
2019-02-26T05:29:29.564Z,8.03
2019-02-26T05:32:04.002Z,8.03
2019-02-26T05:34:37.357Z,7.99
2019-02-26T05:37:11.100Z,8.02
2019-02-26T05:39:43.259Z,8.01
2019-02-26T05:42:15.225Z,7.98
2019-02-26T05:44:46.760Z,7.95
2019-02-26T05:47:21.552Z,7.98
2019-02-26T05:49:52.275Z,8.03
2019-02-26T05:52:25.034Z,8.05
2019-02-26T05:54:57.104Z,8.02
2019-02-26T05:57:32.550Z,8.06
2019-02-26T06:00:01.982Z,8.02
2019-02-26T06:02:36.675Z,8.02
2019-02-26T06:05:11.659Z,8.07
2019-02-26T06:07:43.226Z,8.09
2019-02-26T06:10:14.743Z,8.04
2019-02-26T06:12:46.755Z,8.08
2019-02-26T06:15:20.419Z,8.08
2019-02-26T06:17:53.417Z,8.11
2019-02-26T06:20:28.062Z,8.12
2019-02-26T06:22:58.274Z,8.14
2019-02-26T06:25:30.062Z,8.11
2019-02-26T06:28:04.519Z,8.09
2019-02-26T06:30:34.874Z,8.15
2019-02-26T06:33:07.113Z,8.11
2019-02-26T06:35:41.145Z,8.09
2019-02-26T06:38:13.704Z,8.06
2019-02-26T06:40:47.089Z,8.01
2019-02-26T06:43:18.496Z,8.06
2019-02-26T06:45:50.240Z,8.05
2019-02-26T06:48:24.604Z,8.02
2019-02-26T06:50:57.582Z,8.00
2019-02-26T06:53:29.920Z,8.10
2019-02-26T06:56:02.192Z,8.12
2019-02-26T06:58:35.456Z,8.14
2019-02-26T07:01:09.633Z,8.10
2019-02-26T07:03:41.104Z,8.10
2019-02-26T07:06:12.693Z,8.18
2019-02-26T07:08:45.039Z,8.18
2019-02-26T07:11:17.664Z,8.17
2019-02-26T07:13:49.235Z,8.13
2019-02-26T07:16:21.202Z,8.16
2019-02-26T07:18:52.836Z,8.13
2019-02-26T07:21:24.798Z,8.17
2019-02-26T07:23:56.935Z,8.22
2019-02-26T07:26:29.564Z,8.17
2019-02-26T07:29:03.359Z,8.23
2019-02-26T07:31:35.510Z,8.23
2019-02-26T07:34:07.295Z,8.13
2019-02-26T07:36:41.018Z,8.12
2019-02-26T07:39:12.937Z,8.15
2019-02-26T07:41:47.102Z,8.18
2019-02-26T07:44:21.252Z,8.25
2019-02-26T07:46:52.341Z,8.24
2019-02-26T07:49:24.001Z,8.21
2019-02-26T07:51:57.773Z,8.25
2019-02-26T07:54:29.273Z,8.25
2019-02-26T07:57:02.671Z,8.32
2019-02-26T07:59:34.882Z,8.32
2019-02-26T08:02:08.841Z,8.30
2019-02-26T08:04:43.643Z,8.36
2019-02-26T08:07:15.347Z,8.50
2019-02-26T08:09:47.033Z,8.49
2019-02-26T08:12:18.655Z,8.57
2019-02-26T08:14:50.365Z,8.59
2019-02-26T08:17:21.958Z,8.59
2019-02-26T08:19:53.647Z,8.68
2019-02-26T08:22:27.015Z,8.71
2019-02-26T08:24:58.708Z,8.67
2019-02-26T08:27:30.859Z,8.62
2019-02-26T08:30:04.275Z,8.68
2019-02-26T08:32:36.089Z,8.70
2019-02-26T08:35:09.284Z,8.82
2019-02-26T08:37:40.950Z,8.90
2019-02-26T08:40:14.182Z,8.99
2019-02-26T08:42:45.810Z,9.23
2019-02-26T08:45:22.874Z,9.28
2019-02-26T08:47:53.729Z,9.32
2019-02-26T08:50:28.524Z,9.34
2019-02-26T08:52:59.166Z,9.33
2019-02-26T08:55:30.869Z,9.52
2019-02-26T08:58:02.658Z,9.59
2019-02-26T09:00:34.375Z,9.77
2019-02-26T09:03:08.277Z,9.91
2019-02-26T09:05:39.578Z,9.95
2019-02-26T09:08:14.018Z,9.80
2019-02-26T09:10:46.920Z,9.79
2019-02-26T09:13:19.221Z,9.88
2019-02-26T09:15:51.008Z,9.77
2019-02-26T09:18:24.729Z,9.61
2019-02-26T09:20:56.121Z,9.65
2019-02-26T09:23:28.809Z,9.82
2019-02-26T09:26:02.602Z,9.89
2019-02-26T09:28:34.826Z,9.93
2019-02-26T09:31:07.390Z,10.02
2019-02-26T09:33:40.927Z,9.93
2019-02-26T09:36:15.713Z,9.97
2019-02-26T09:38:46.889Z,9.96
2019-02-26T09:41:21.445Z,9.86
2019-02-26T09:43:53.286Z,9.82
2019-02-26T09:46:24.817Z,9.84
2019-02-26T09:48:57.916Z,9.78
2019-02-26T09:51:30.692Z,9.69
2019-02-26T09:54:02.995Z,9.72
2019-02-26T09:56:34.728Z,9.84
2019-02-26T09:59:07.124Z,9.93
2019-02-26T10:01:40.764Z,9.89
2019-02-26T10:04:12.806Z,9.75
2019-02-26T10:06:44.953Z,9.75
2019-02-26T10:09:18.908Z,9.72
2019-02-26T10:11:51.690Z,9.68
2019-02-26T10:14:23.405Z,9.62
2019-02-26T10:16:56.951Z,9.70
2019-02-26T10:19:28.464Z,9.67
2019-02-26T10:22:00.711Z,9.75
2019-02-26T10:24:35.290Z,9.73
2019-02-26T10:27:10.921Z,9.73
2019-02-26T10:29:44.824Z,9.84
2019-02-26T10:32:15.005Z,9.94
2019-02-26T10:34:46.550Z,9.88
2019-02-26T10:37:18.156Z,9.98
2019-02-26T10:39:52.022Z,10.09
2019-02-26T10:42:23.205Z,10.31
2019-02-26T10:44:54.826Z,10.30
2019-02-26T10:47:27.503Z,10.36
2019-02-26T10:49:59.895Z,10.44
2019-02-26T10:52:31.542Z,10.42
2019-02-26T10:55:03.172Z,10.51
2019-02-26T10:57:36.161Z,10.61
2019-02-26T11:00:19.287Z,10.61
2019-02-26T11:02:54.030Z,10.64
2019-02-26T11:05:26.404Z,10.64
2019-02-26T11:08:01.887Z,10.75
2019-02-26T11:10:32.087Z,10.74
2019-02-26T11:13:03.763Z,10.71
2019-02-26T11:15:36.100Z,10.67
2019-02-26T11:18:08.361Z,10.70
2019-02-26T11:20:41.190Z,10.74
2019-02-26T11:23:14.229Z,10.84
2019-02-26T11:25:46.139Z,10.97
2019-02-26T11:28:17.763Z,10.98
2019-02-26T11:30:51.714Z,11.16
2019-02-26T11:33:23.092Z,11.16
2019-02-26T11:35:54.698Z,11.08
2019-02-26T11:38:27.355Z,11.07
2019-02-26T11:40:58.905Z,11.19
2019-02-26T11:43:30.437Z,11.22
2019-02-26T11:46:03.870Z,11.41
2019-02-26T11:48:35.345Z,11.44
2019-02-26T11:51:06.954Z,11.42
2019-02-26T11:53:38.588Z,11.44
2019-02-26T11:56:10.115Z,11.52
2019-02-26T11:58:41.653Z,11.53
2019-02-26T12:01:13.311Z,11.67
2019-02-26T12:03:44.935Z,11.68
2019-02-26T12:06:17.077Z,11.66
2019-02-26T12:08:50.048Z,11.69
2019-02-26T12:11:23.297Z,11.76
2019-02-26T12:13:55.241Z,11.74
2019-02-26T12:16:28.478Z,11.78
2019-02-26T12:19:03.510Z,11.88
2019-02-26T12:21:36.923Z,11.92
2019-02-26T12:24:09.227Z,11.91
2019-02-26T12:26:42.355Z,11.83
2019-02-26T12:29:16.155Z,11.92
2019-02-26T12:31:47.837Z,11.83
2019-02-26T12:34:20.794Z,11.85
2019-02-26T12:36:53.713Z,11.93
2019-02-26T12:39:29.162Z,11.99
2019-02-26T12:41:59.292Z,12.07
2019-02-26T12:44:32.035Z,12.18
2019-02-26T12:47:04.280Z,12.14
2019-02-26T12:49:38.493Z,12.12
2019-02-26T12:52:09.196Z,12.17
2019-02-26T12:54:42.835Z,12.18
2019-02-26T12:57:18.411Z,12.26
2019-02-26T12:59:49.198Z,12.33
2019-02-26T13:02:24.610Z,12.37
2019-02-26T13:04:54.165Z,12.37
2019-02-26T13:07:25.993Z,12.44
2019-02-26T13:10:02.782Z,12.47
2019-02-26T13:12:32.225Z,12.43
2019-02-26T13:15:09.524Z,12.42
2019-02-26T13:17:38.856Z,12.51
2019-02-26T13:20:14.797Z,12.54
2019-02-26T13:22:46.386Z,12.57
2019-02-26T13:25:21.578Z,12.57
2019-02-26T13:27:51.315Z,12.55
2019-02-26T13:30:27.381Z,12.54
2019-02-26T13:33:00.880Z,12.49
2019-02-26T13:35:32.222Z,12.48
2019-02-26T13:38:05.596Z,12.52
2019-02-26T13:40:38.670Z,12.49
2019-02-26T13:43:10.349Z,12.48
2019-02-26T13:45:42.025Z,12.50
2019-02-26T13:48:13.862Z,12.52
2019-02-26T13:50:45.399Z,12.49
2019-02-26T13:53:17.000Z,12.43
2019-02-26T13:55:48.671Z,12.47
2019-02-26T13:58:20.337Z,12.49
2019-02-26T14:00:52.107Z,12.55
2019-02-26T14:03:24.456Z,12.51
2019-02-26T14:05:56.042Z,12.56
2019-02-26T14:08:27.651Z,12.55
2019-02-26T14:10:59.195Z,12.52
2019-02-26T14:13:30.801Z,12.52
2019-02-26T14:16:04.034Z,12.54
2019-02-26T14:18:35.691Z,12.52
2019-02-26T14:21:07.229Z,12.56
2019-02-26T14:23:38.840Z,12.59
2019-02-26T14:26:10.342Z,12.64
2019-02-26T14:28:42.014Z,12.71
2019-02-26T14:31:13.589Z,12.74
2019-02-26T14:33:45.131Z,12.78
2019-02-26T14:36:16.668Z,12.73
2019-02-26T14:38:48.329Z,12.68
2019-02-26T14:41:19.897Z,12.64
2019-02-26T14:43:51.499Z,12.55
2019-02-26T14:46:23.154Z,12.61
2019-02-26T14:48:54.704Z,12.55
2019-02-26T14:51:26.807Z,12.52
2019-02-26T14:53:58.478Z,12.47
2019-02-26T14:56:30.109Z,12.46
2019-02-26T14:59:01.626Z,12.48
2019-02-26T15:01:33.232Z,12.44
2019-02-26T15:04:05.310Z,12.43
2019-02-26T15:06:36.922Z,12.49
2019-02-26T15:09:08.449Z,12.42
2019-02-26T15:11:40.568Z,12.36
2019-02-26T15:14:12.191Z,12.26
2019-02-26T15:16:43.745Z,12.26
2019-02-26T15:19:15.265Z,12.13
2019-02-26T15:21:47.345Z,12.13
2019-02-26T15:24:19.447Z,12.03
2019-02-26T15:26:50.975Z,11.96
2019-02-26T15:29:22.566Z,11.99
2019-02-26T15:31:54.216Z,11.94
2019-02-26T15:34:25.873Z,11.86
2019-02-26T15:36:58.282Z,11.86
2019-02-26T15:39:30.177Z,11.74
2019-02-26T15:42:01.862Z,11.76
2019-02-26T15:44:33.654Z,11.69
2019-02-26T15:49:54.700Z,11.60
2019-02-26T15:52:46.020Z,11.62
2019-02-26T15:55:25.859Z,11.50
2019-02-26T15:57:57.737Z,11.52
2019-02-26T16:00:30.913Z,11.44
2019-02-26T16:03:02.478Z,11.37
2019-02-26T16:05:39.295Z,11.31
2019-02-26T16:08:11.026Z,11.31
2019-02-26T16:10:42.693Z,11.26
2019-02-26T16:13:15.297Z,11.18
2019-02-26T16:15:47.650Z,11.15
2019-02-26T16:18:19.479Z,11.10
2019-02-26T16:20:51.083Z,11.02
2019-02-26T16:23:22.684Z,10.97
2019-02-26T16:25:54.344Z,10.88
2019-02-26T16:28:27.264Z,10.80
2019-02-26T16:31:00.058Z,10.82
2019-02-26T16:33:31.740Z,10.75
2019-02-26T16:36:03.359Z,10.63
2019-02-26T16:38:35.343Z,10.37
2019-02-26T16:41:06.931Z,10.20
2019-02-26T16:43:38.476Z,10.11
2019-02-26T16:46:10.589Z,9.98
2019-02-26T16:48:42.181Z,9.89
2019-02-26T16:51:13.692Z,9.77
2019-02-26T16:53:45.334Z,9.69
2019-02-26T16:56:16.969Z,9.61
2019-02-26T16:58:48.549Z,9.50
2019-02-26T17:01:21.802Z,9.40
2019-02-26T17:03:53.936Z,9.32
2019-02-26T17:06:25.495Z,9.23
2019-02-26T17:08:57.174Z,9.18
2019-02-26T17:11:28.845Z,9.17
2019-02-26T17:14:01.077Z,9.11
2019-02-26T17:16:32.702Z,9.07
2019-02-26T17:19:04.365Z,8.99
2019-02-26T17:21:36.078Z,8.98
2019-02-26T17:24:07.649Z,8.95
2019-02-26T17:26:39.192Z,8.90
2019-02-26T17:29:11.426Z,8.91
2019-02-26T17:31:45.242Z,8.87
2019-02-26T17:34:17.703Z,8.78
2019-02-26T17:36:50.075Z,8.75
2019-02-26T17:39:23.702Z,8.74
2019-02-26T17:41:56.927Z,8.69
2019-02-26T17:44:28.227Z,8.64
2019-02-26T17:46:59.840Z,8.61
2019-02-26T17:49:33.658Z,8.58
2019-02-26T17:52:06.497Z,8.61
2019-02-26T17:54:39.594Z,8.57
2019-02-26T17:57:11.322Z,8.50
2019-02-26T17:59:43.228Z,8.54
2019-02-26T18:02:14.863Z,8.63
2019-02-26T18:04:46.625Z,8.56
2019-02-26T18:07:18.422Z,8.52
2019-02-26T18:09:50.640Z,8.46
2019-02-26T18:12:22.384Z,8.49
2019-02-26T18:14:56.088Z,8.57
2019-02-26T18:17:27.429Z,8.62
2019-02-26T18:19:58.971Z,8.68
2019-02-26T18:22:30.549Z,8.69
2019-02-26T18:25:02.146Z,8.66
2019-02-26T18:27:33.821Z,8.66
2019-02-26T18:30:12.557Z,8.62
2019-02-26T18:32:50.219Z,8.64
2019-02-26T18:35:17.557Z,8.59
2019-02-26T18:37:49.215Z,8.48
2019-02-26T18:40:20.982Z,8.37
2019-02-26T18:42:52.590Z,8.43
2019-02-26T18:45:31.633Z,8.43
2019-02-26T18:48:03.319Z,8.41
2019-02-26T18:50:34.996Z,8.40
2019-02-26T18:53:06.680Z,8.31
2019-02-26T18:55:38.283Z,8.14
2019-02-26T18:58:10.034Z,8.35
2019-02-26T19:00:41.996Z,8.27
2019-02-26T19:03:17.853Z,8.28
2019-02-26T19:05:53.789Z,8.30
2019-02-26T19:08:24.072Z,8.27
2019-02-26T19:10:55.736Z,8.27
2019-02-26T19:13:27.318Z,8.21
2019-02-26T19:15:58.847Z,8.15
2019-02-26T19:18:30.469Z,8.18
2019-02-26T19:21:02.711Z,8.06
2019-02-26T19:23:34.334Z,7.88
2019-02-26T19:26:06.109Z,7.86
2019-02-26T19:28:38.723Z,7.90
2019-02-26T19:31:10.535Z,7.79
2019-02-26T19:33:43.628Z,7.75
2019-02-26T19:36:15.867Z,7.71
2019-02-26T19:38:48.545Z,7.71
2019-02-26T19:41:20.228Z,7.74
2019-02-26T19:43:52.494Z,7.68
2019-02-26T19:46:27.928Z,7.54
2019-02-26T19:49:08.284Z,7.42
2019-02-26T19:51:41.067Z,7.31
2019-02-26T19:54:13.048Z,7.28
2019-02-26T19:56:45.385Z,7.20
2019-02-26T19:59:17.131Z,7.20
2019-02-26T20:01:48.824Z,7.11
2019-02-26T20:04:21.535Z,7.08
2019-02-26T20:06:54.187Z,7.12
2019-02-26T20:09:26.152Z,7.12
2019-02-26T20:12:00.049Z,7.08
2019-02-26T20:14:51.452Z,6.98
2019-02-26T20:17:24.387Z,6.99
2019-02-26T20:19:56.708Z,6.96
2019-02-26T20:22:30.601Z,7.01
2019-02-26T20:25:03.915Z,7.00
2019-02-26T20:27:36.958Z,6.94
2019-02-26T20:30:16.967Z,6.88
2019-02-26T20:32:50.015Z,6.79
2019-02-26T20:35:21.662Z,6.72
2019-02-26T20:37:53.272Z,6.64
2019-02-26T20:40:27.394Z,6.63
2019-02-26T20:43:01.852Z,6.52
2019-02-26T20:45:35.353Z,6.50
2019-02-26T20:48:13.613Z,6.50
2019-02-26T20:50:56.543Z,6.34
2019-02-26T20:53:33.414Z,6.29
2019-02-26T20:56:09.588Z,6.27
2019-02-26T20:58:44.670Z,6.22
2019-02-26T21:01:15.835Z,6.14
2019-02-26T21:03:47.557Z,6.10
2019-02-26T21:06:19.261Z,6.14
2019-02-26T21:08:50.895Z,6.04
2019-02-26T21:11:23.265Z,6.09
2019-02-26T21:13:54.924Z,6.00
2019-02-26T21:16:27.203Z,5.79
2019-02-26T21:19:02.689Z,5.74
2019-02-26T21:21:32.095Z,5.75
2019-02-26T21:24:03.656Z,5.68
2019-02-26T21:26:35.277Z,5.58
2019-02-26T21:29:06.855Z,5.61
2019-02-26T21:31:39.009Z,5.59
2019-02-26T21:34:10.623Z,5.69
2019-02-26T21:36:42.309Z,5.64
2019-02-26T21:39:13.872Z,5.58
2019-02-26T21:41:45.462Z,5.53
2019-02-26T21:44:17.142Z,5.49
2019-02-26T21:46:48.709Z,5.43
2019-02-26T21:49:21.777Z,5.42
2019-02-26T21:51:55.186Z,5.45
2019-02-26T21:54:26.873Z,5.49
2019-02-26T21:56:58.489Z,5.41
2019-02-26T21:59:32.564Z,5.39
2019-02-26T22:02:03.428Z,5.40
2019-02-26T22:04:35.095Z,5.51
2019-02-26T22:07:07.147Z,5.46
2019-02-26T22:09:38.916Z,5.48
2019-02-26T22:12:10.634Z,5.50
2019-02-26T22:14:42.641Z,5.65
2019-02-26T22:17:15.176Z,5.76
2019-02-26T22:19:46.701Z,5.76
2019-02-26T22:22:19.053Z,5.77
2019-02-26T22:24:53.065Z,5.85
2019-02-26T22:27:24.632Z,5.98
2019-02-26T22:29:56.233Z,6.07
2019-02-26T22:32:27.836Z,6.13
2019-02-26T22:34:59.682Z,6.19
2019-02-26T22:37:31.457Z,6.17
2019-02-26T22:40:03.168Z,6.16
2019-02-26T22:42:34.729Z,6.14
2019-02-26T22:45:09.964Z,6.15
2019-02-26T22:47:43.947Z,6.12
2019-02-26T22:50:17.353Z,6.06
2019-02-26T22:52:48.870Z,6.15
2019-02-26T22:55:20.464Z,6.26
2019-02-26T22:57:52.418Z,6.30
2019-02-26T23:00:50.254Z,6.18
2019-02-26T23:03:23.883Z,6.22
2019-02-26T23:05:58.789Z,6.25
2019-02-26T23:08:29.355Z,6.20
2019-02-26T23:11:00.980Z,6.15
2019-02-26T23:13:33.678Z,6.14
2019-02-26T23:16:05.780Z,6.17
2019-02-26T23:18:37.377Z,6.19
2019-02-26T23:21:10.039Z,6.17
2019-02-26T23:23:42.002Z,6.14
2019-02-26T23:26:13.705Z,6.17
2019-02-26T23:28:45.454Z,6.16
2019-02-26T23:31:17.927Z,6.18
2019-02-26T23:33:49.669Z,6.14
2019-02-26T23:36:21.771Z,6.12
2019-02-26T23:38:53.501Z,6.11
2019-02-26T23:41:25.098Z,6.10
2019-02-26T23:43:56.698Z,6.09
2019-02-26T23:46:29.805Z,6.01
2019-02-26T23:49:02.403Z,5.93
2019-02-26T23:51:33.974Z,5.87
2019-02-26T23:54:07.281Z,5.76
2019-02-26T23:56:38.800Z,5.72
2019-02-26T23:59:10.726Z,5.72
